createdAt,value
2019-04-14T00:01:30.528Z,76.19
2019-04-14T00:04:31.225Z,75.40
2019-04-14T00:07:03.693Z,75.71
2019-04-14T00:09:36.305Z,76.05
2019-04-14T00:12:09.017Z,76.28
2019-04-14T00:14:40.411Z,76.40
2019-04-14T00:17:11.276Z,76.70
2019-04-14T00:19:44.147Z,76.51
2019-04-14T00:22:16.203Z,76.90
2019-04-14T00:24:48.949Z,76.95
2019-04-14T00:27:21.231Z,76.99
2019-04-14T00:29:53.214Z,76.77
2019-04-14T00:32:24.833Z,76.94
2019-04-14T00:35:21.003Z,77.06
2019-04-14T00:38:17.465Z,77.01
2019-04-14T00:41:13.730Z,77.14
2019-04-14T00:44:09.991Z,76.99
2019-04-14T00:46:55.978Z,77.10
2019-04-14T00:49:28.902Z,77.02
2019-04-14T00:52:01.521Z,77.20
2019-04-14T00:54:34.638Z,77.33
2019-04-14T00:57:05.269Z,77.22
2019-04-14T00:59:38.408Z,77.28
2019-04-14T01:02:09.883Z,77.36
2019-04-14T01:04:42.669Z,77.41
2019-04-14T01:07:13.462Z,77.37
2019-04-14T01:09:44.326Z,77.38
2019-04-14T01:12:17.091Z,77.19
2019-04-14T01:14:49.474Z,77.49
2019-04-14T01:17:22.015Z,77.52
2019-04-14T01:19:55.462Z,77.31
2019-04-14T01:22:27.511Z,77.08
2019-04-14T01:24:59.995Z,77.17
2019-04-14T01:27:30.450Z,77.12
2019-04-14T01:30:04.518Z,76.70
2019-04-14T01:32:37.604Z,76.86
2019-04-14T01:35:09.635Z,76.68
2019-04-14T01:37:41.886Z,76.87
2019-04-14T01:40:12.475Z,76.99
2019-04-14T01:42:46.370Z,76.83
2019-04-14T01:45:18.647Z,76.81
2019-04-14T01:47:49.591Z,76.68
2019-04-14T01:50:23.437Z,76.91
2019-04-14T01:53:22.865Z,77.64
2019-04-14T01:56:05.651Z,77.76
2019-04-14T01:58:49.759Z,77.58
2019-04-14T02:01:32.460Z,77.33
2019-04-14T02:04:05.575Z,77.33
2019-04-14T02:06:37.604Z,77.55
2019-04-14T02:09:10.401Z,77.53
2019-04-14T02:11:40.886Z,77.18
2019-04-14T02:14:14.778Z,77.79
2019-04-14T02:16:53.579Z,77.90
2019-04-14T02:19:21.936Z,77.78
2019-04-14T02:21:54.679Z,77.80
2019-04-14T02:24:26.340Z,77.79
2019-04-14T02:26:59.121Z,78.12
2019-04-14T02:29:29.838Z,78.00
2019-04-14T02:32:43.363Z,78.19
2019-04-14T02:35:03.046Z,78.36
2019-04-14T02:37:44.860Z,78.44
2019-04-14T02:40:12.969Z,78.24
2019-04-14T02:42:48.270Z,78.25
2019-04-14T02:45:22.632Z,78.57
2019-04-14T02:50:26.332Z,78.45
2019-04-14T02:53:01.667Z,78.48
2019-04-14T02:55:31.777Z,78.68
2019-04-14T02:58:16.076Z,78.99
2019-04-14T03:00:41.436Z,79.50
2019-04-14T03:03:17.949Z,79.37
2019-04-14T03:08:23.595Z,79.29
2019-04-14T03:15:56.855Z,79.76
2019-04-14T03:18:54.333Z,79.63
2019-04-14T03:22:05.139Z,79.51
2019-04-14T03:24:39.172Z,79.73
2019-04-14T03:27:45.819Z,80.02
2019-04-14T03:33:32.509Z,80.31
2019-04-14T03:38:20.570Z,80.03
2019-04-14T03:40:45.809Z,80.22
2019-04-14T03:43:18.806Z,80.20
2019-04-14T03:45:51.998Z,80.58
2019-04-14T03:48:45.087Z,80.55
2019-04-14T03:51:00.396Z,80.54
2019-04-14T03:53:27.190Z,80.64
2019-04-14T03:56:14.909Z,80.76
2019-04-14T03:58:47.215Z,81.12
2019-04-14T04:01:19.397Z,81.05
2019-04-14T04:03:52.168Z,80.73
2019-04-14T04:06:24.567Z,81.42
2019-04-14T04:08:55.463Z,81.86
2019-04-14T04:11:26.144Z,82.53
2019-04-14T04:13:58.541Z,83.37
2019-04-14T04:16:51.390Z,83.56
2019-04-14T04:19:29.426Z,83.43
2019-04-14T04:22:19.311Z,83.46
2019-04-14T04:25:00.808Z,83.82
2019-04-14T04:27:46.175Z,84.43
2019-04-14T04:30:34.564Z,84.90
2019-04-14T04:33:30.943Z,84.90
2019-04-14T04:36:05.302Z,84.26
2019-04-14T04:38:46.382Z,84.16
2019-04-14T04:41:17.207Z,84.04
2019-04-14T04:43:49.378Z,84.18
2019-04-14T04:46:22.083Z,84.80
2019-04-14T04:49:03.364Z,84.62
2019-04-14T04:51:25.387Z,84.72
2019-04-14T04:53:57.055Z,84.92
2019-04-14T04:56:27.580Z,85.22
2019-04-14T04:59:01.068Z,84.89
2019-04-14T05:01:31.788Z,84.77
2019-04-14T05:04:04.635Z,84.97
2019-04-14T05:07:07.783Z,85.16
2019-04-14T05:10:04.697Z,85.09
2019-04-14T05:12:47.860Z,85.30
2019-04-14T05:15:40.274Z,84.88
2019-04-14T05:18:24.672Z,84.66
2019-04-14T05:20:57.437Z,84.96
2019-04-14T05:23:29.933Z,85.09
2019-04-14T05:26:01.050Z,85.44
2019-04-14T05:28:31.647Z,85.15
2019-04-14T05:31:03.337Z,84.57
2019-04-14T05:33:36.033Z,85.06
2019-04-14T05:36:06.602Z,85.22
2019-04-14T05:38:40.780Z,84.88
2019-04-14T05:41:13.786Z,85.24
2019-04-14T05:43:52.004Z,85.73
2019-04-14T05:46:20.765Z,85.24
2019-04-14T05:48:51.498Z,85.31
2019-04-14T05:51:23.319Z,85.25
2019-04-14T05:53:54.695Z,85.35
2019-04-14T05:56:25.766Z,85.51
2019-04-14T05:58:57.887Z,85.81
2019-04-14T06:01:46.527Z,85.14
2019-04-14T06:04:17.829Z,84.85
2019-04-14T06:06:48.802Z,84.76
2019-04-14T06:09:20.743Z,85.54
2019-04-14T06:11:53.816Z,85.62
2019-04-14T06:14:26.816Z,85.24
2019-04-14T06:16:57.836Z,84.59
2019-04-14T06:19:37.826Z,84.67
2019-04-14T06:22:01.894Z,84.50
2019-04-14T06:24:32.944Z,84.38
2019-04-14T06:27:03.766Z,84.35
2019-04-14T06:29:36.868Z,84.43
2019-04-14T06:32:47.153Z,84.60
2019-04-14T06:35:41.212Z,83.88
2019-04-14T06:38:22.349Z,83.31
2019-04-14T06:40:58.483Z,82.73
2019-04-14T06:43:29.972Z,82.76
2019-04-14T06:46:01.966Z,83.38
2019-04-14T06:48:33.058Z,82.99
2019-04-14T06:51:04.311Z,83.04
2019-04-14T06:53:35.912Z,82.60
2019-04-14T06:56:06.649Z,82.68
2019-04-14T06:58:37.223Z,83.11
2019-04-14T07:01:07.843Z,82.96
2019-04-14T07:03:38.374Z,83.54
2019-04-14T07:06:09.006Z,84.24
2019-04-14T07:08:39.534Z,84.35
2019-04-14T07:11:10.147Z,84.25
2019-04-14T07:13:40.719Z,84.63
2019-04-14T07:16:11.154Z,84.58
2019-04-14T07:18:42.014Z,83.94
2019-04-14T07:21:12.665Z,84.07
2019-04-14T07:23:43.174Z,83.98
2019-04-14T07:26:13.823Z,83.78
2019-04-14T07:28:56.199Z,83.96
2019-04-14T07:31:42.383Z,84.29
2019-04-14T07:34:32.185Z,84.07
2019-04-14T07:37:21.477Z,83.85
2019-04-14T07:40:07.592Z,84.37
2019-04-14T07:42:47.499Z,84.53
2019-04-14T07:45:52.064Z,83.94
2019-04-14T07:48:34.505Z,82.98
2019-04-14T07:51:20.218Z,82.76
2019-04-14T07:53:57.065Z,82.62
2019-04-14T07:56:51.244Z,82.62
2019-04-14T07:59:31.252Z,83.30
2019-04-14T08:02:22.215Z,83.03
2019-04-14T08:05:05.215Z,83.41
2019-04-14T08:07:36.599Z,84.06
2019-04-14T08:10:08.616Z,84.72
2019-04-14T08:12:39.306Z,84.59
2019-04-14T08:15:10.136Z,83.56
2019-04-14T08:17:43.454Z,82.13
2019-04-14T08:20:26.495Z,81.24
2019-04-14T08:22:47.289Z,80.37
2019-04-14T08:25:17.826Z,79.69
2019-04-14T08:27:49.669Z,79.85
2019-04-14T08:30:20.619Z,80.86
2019-04-14T08:32:53.569Z,81.95
2019-04-14T08:35:26.550Z,81.43
2019-04-14T08:37:57.955Z,81.88
2019-04-14T08:40:29.602Z,81.75
2019-04-14T08:43:35.210Z,81.59
2019-04-14T08:46:27.298Z,82.20
2019-04-14T08:49:04.846Z,82.25
2019-04-14T08:51:50.796Z,82.40
2019-04-14T08:54:29.670Z,82.11
2019-04-14T08:57:13.025Z,81.47
2019-04-14T09:00:00.242Z,81.64
2019-04-14T09:02:50.049Z,81.35
2019-04-14T09:05:30.230Z,81.90
2019-04-14T09:08:25.261Z,82.43
2019-04-14T09:10:58.675Z,82.37
2019-04-14T09:13:29.523Z,82.26
2019-04-14T09:16:00.566Z,82.44
2019-04-14T09:18:33.523Z,83.05
2019-04-14T09:21:04.736Z,83.54
2019-04-14T09:23:37.730Z,83.32
2019-04-14T09:26:08.629Z,82.76
2019-04-14T09:28:39.689Z,83.34
2019-04-14T09:31:10.776Z,83.17
2019-04-14T09:33:43.779Z,82.65
2019-04-14T09:36:14.217Z,82.77
2019-04-14T09:38:44.814Z,80.12
2019-04-14T09:41:15.246Z,79.57
2019-04-14T09:43:45.804Z,79.26
2019-04-14T09:46:16.532Z,79.36
2019-04-14T09:48:47.138Z,77.86
2019-04-14T09:51:17.962Z,78.13
2019-04-14T09:53:48.330Z,77.49
2019-04-14T09:56:18.832Z,76.91
2019-04-14T09:58:49.522Z,76.45
2019-04-14T10:01:21.647Z,74.70
2019-04-14T10:03:52.245Z,74.73
2019-04-14T10:06:24.006Z,74.60
2019-04-14T10:08:56.945Z,74.34
2019-04-14T10:11:27.922Z,74.52
2019-04-14T10:13:58.955Z,75.16
2019-04-14T10:16:31.870Z,75.76
2019-04-14T10:19:02.960Z,75.52
2019-04-14T10:21:34.031Z,73.77
2019-04-14T10:24:06.907Z,72.64
2019-04-14T10:26:38.028Z,72.33
2019-04-14T10:29:08.967Z,72.03
2019-04-14T10:31:41.967Z,71.88
2019-04-14T10:34:12.819Z,71.88
2019-04-14T10:36:43.285Z,72.11
2019-04-14T10:39:13.844Z,72.38
2019-04-14T10:41:44.273Z,73.03
2019-04-14T10:44:14.929Z,72.74
2019-04-14T10:46:45.546Z,71.69
2019-04-14T10:49:16.185Z,71.91
2019-04-14T10:51:46.849Z,73.18
2019-04-14T10:54:17.323Z,73.24
2019-04-14T10:56:47.858Z,72.23
2019-04-14T10:59:18.266Z,71.41
2019-04-14T11:01:49.069Z,71.02
2019-04-14T11:04:19.683Z,71.99
2019-04-14T11:07:09.131Z,72.63
2019-04-14T11:09:41.186Z,70.98
2019-04-14T11:12:12.258Z,70.05
2019-04-14T11:14:45.259Z,70.09
2019-04-14T11:17:17.333Z,69.01
2019-04-14T11:19:50.155Z,67.78
2019-04-14T11:22:21.247Z,66.85
2019-04-14T11:24:54.072Z,65.82
2019-04-14T11:27:24.766Z,66.78
2019-04-14T11:29:55.167Z,67.71
2019-04-14T11:32:41.425Z,68.16
2019-04-14T11:35:22.884Z,68.39
2019-04-14T11:38:15.828Z,67.27
2019-04-14T11:40:50.602Z,68.38
2019-04-14T11:43:21.428Z,70.26
2019-04-14T11:45:53.343Z,70.07
2019-04-14T11:48:24.501Z,70.32
2019-04-14T11:50:55.726Z,69.45
2019-04-14T11:53:27.391Z,68.44
2019-04-14T11:55:58.300Z,68.63
2019-04-14T11:58:29.291Z,68.08
2019-04-14T12:01:27.456Z,68.32
2019-04-14T12:04:11.062Z,68.06
2019-04-14T12:06:59.605Z,68.16
2019-04-14T12:09:43.447Z,68.34
2019-04-14T12:12:14.422Z,68.48
2019-04-14T12:14:47.548Z,67.48
2019-04-14T12:17:18.121Z,66.63
2019-04-14T12:19:49.511Z,65.79
2019-04-14T12:22:21.537Z,66.17
2019-04-14T12:24:53.388Z,65.39
2019-04-14T12:27:23.977Z,65.65
2019-04-14T12:29:54.499Z,65.25
2019-04-14T12:32:25.098Z,63.64
2019-04-14T12:34:55.767Z,63.34
2019-04-14T12:37:26.370Z,60.91
2019-04-14T12:39:57.071Z,60.02
2019-04-14T12:42:58.566Z,59.37
2019-04-14T12:45:48.460Z,58.88
2019-04-14T12:48:43.365Z,58.69
2019-04-14T12:51:21.571Z,58.27
2019-04-14T12:53:54.622Z,59.10
2019-04-14T12:56:28.507Z,59.61
2019-04-14T12:59:23.108Z,59.54
2019-04-14T13:02:13.421Z,58.28
2019-04-14T13:04:44.900Z,58.16
2019-04-14T13:07:15.536Z,56.18
2019-04-14T13:09:48.634Z,56.26
2019-04-14T13:12:19.201Z,56.66
2019-04-14T13:14:51.366Z,56.90
2019-04-14T13:17:23.802Z,54.93
2019-04-14T13:19:56.831Z,56.05
2019-04-14T13:22:33.934Z,56.33
2019-04-14T13:25:00.833Z,55.48
2019-04-14T13:27:31.783Z,55.86
2019-04-14T13:30:02.209Z,57.74
2019-04-14T13:32:36.256Z,58.22
2019-04-14T13:35:07.344Z,58.29
2019-04-14T13:37:38.979Z,59.25
2019-04-14T13:40:10.886Z,60.54
2019-04-14T13:42:41.277Z,59.98
2019-04-14T13:45:12.045Z,59.47
2019-04-14T13:47:43.085Z,60.55
2019-04-14T13:50:15.978Z,60.63
2019-04-14T13:52:47.510Z,60.68
2019-04-14T13:55:18.192Z,60.43
2019-04-14T13:57:51.235Z,59.99
2019-04-14T14:00:24.202Z,61.40
2019-04-14T14:02:57.006Z,63.29
2019-04-14T14:05:29.926Z,63.51
2019-04-14T14:08:02.104Z,63.71
2019-04-14T14:10:33.267Z,63.15
2019-04-14T14:13:17.533Z,62.90
2019-04-14T14:16:16.187Z,62.95
2019-04-14T14:18:59.408Z,63.43
2019-04-14T14:21:44.063Z,64.66
2019-04-14T14:24:42.848Z,65.87
2019-04-14T14:27:16.052Z,66.20
2019-04-14T14:29:49.040Z,67.24
2019-04-14T14:32:35.308Z,67.25
2019-04-14T14:35:07.350Z,67.26
2019-04-14T14:37:39.175Z,66.95
2019-04-14T14:40:10.347Z,67.29
2019-04-14T14:42:40.777Z,66.51
2019-04-14T14:45:42.428Z,66.08
2019-04-14T14:48:19.694Z,65.99
2019-04-14T14:51:09.174Z,66.91
2019-04-14T14:53:40.243Z,66.61
2019-04-14T14:56:13.257Z,65.59
2019-04-14T14:58:45.457Z,66.25
2019-04-14T15:01:18.062Z,66.39
2019-04-14T15:03:48.474Z,65.86
2019-04-14T15:06:20.511Z,66.47
2019-04-14T15:08:52.279Z,66.60
2019-04-14T15:11:24.189Z,66.53
2019-04-14T15:13:56.300Z,65.35
2019-04-14T15:16:27.310Z,65.85
2019-04-14T15:19:00.414Z,65.75
2019-04-14T15:21:31.384Z,66.36
2019-04-14T15:24:02.287Z,66.85
2019-04-14T15:26:35.278Z,66.44
2019-04-14T15:29:06.225Z,67.19
2019-04-14T15:31:36.957Z,66.58
2019-04-14T15:34:07.467Z,67.02
2019-04-14T15:36:38.084Z,66.80
2019-04-14T15:39:09.303Z,67.73
2019-04-14T15:41:42.465Z,68.27
2019-04-14T15:44:15.371Z,68.58
2019-04-14T15:46:46.377Z,68.71
2019-04-14T15:49:18.065Z,68.82
2019-04-14T15:51:49.500Z,68.63
2019-04-14T15:54:21.459Z,68.99
2019-04-14T15:57:19.780Z,70.09
2019-04-14T16:00:11.307Z,70.29
2019-04-14T16:03:04.289Z,70.24
2019-04-14T16:05:44.145Z,70.08
2019-04-14T16:08:20.398Z,70.69
2019-04-14T16:11:10.521Z,70.52
2019-04-14T16:13:53.757Z,71.19
2019-04-14T16:16:47.091Z,71.85
2019-04-14T16:19:37.313Z,71.91
2019-04-14T16:22:09.669Z,71.71
2019-04-14T16:24:40.607Z,71.15
2019-04-14T16:27:23.246Z,71.71
2019-04-14T16:30:15.512Z,71.40
2019-04-14T16:33:04.185Z,71.17
2019-04-14T16:35:38.241Z,72.06
2019-04-14T16:38:10.922Z,72.42
2019-04-14T16:40:41.785Z,73.40
2019-04-14T16:43:14.775Z,73.82
2019-04-14T16:45:45.641Z,73.76
2019-04-14T16:48:16.139Z,73.73
2019-04-14T16:50:46.883Z,73.97
2019-04-14T16:53:23.109Z,74.49
2019-04-14T16:56:10.296Z,74.61
2019-04-14T16:58:47.717Z,74.33
2019-04-14T17:01:23.148Z,74.39
2019-04-14T17:03:53.602Z,73.93
2019-04-14T17:06:24.792Z,73.98
2019-04-14T17:08:56.900Z,74.47
2019-04-14T17:11:27.312Z,74.32
2019-04-14T17:14:25.499Z,74.53
2019-04-14T17:17:19.624Z,74.66
2019-04-14T17:20:05.279Z,74.83
2019-04-14T17:22:54.803Z,74.69
2019-04-14T17:25:32.571Z,75.15
2019-04-14T17:28:16.500Z,74.38
2019-04-14T17:30:53.509Z,73.99
2019-04-14T17:33:37.265Z,74.67
2019-04-14T17:36:27.786Z,74.83
2019-04-14T17:39:25.059Z,74.61
2019-04-14T17:42:03.127Z,75.29
2019-04-14T17:44:53.850Z,75.88
2019-04-14T17:47:45.365Z,76.35
2019-04-14T17:50:40.986Z,76.25
2019-04-14T17:53:30.666Z,76.91
2019-04-14T17:56:26.646Z,77.40
2019-04-14T17:59:03.149Z,77.82
2019-04-14T18:01:55.118Z,77.82
2019-04-14T18:04:52.956Z,77.56
2019-04-14T18:07:32.961Z,77.83
2019-04-14T18:10:22.720Z,77.69
2019-04-14T18:13:13.639Z,77.43
2019-04-14T18:16:04.787Z,77.47
2019-04-14T18:18:57.142Z,77.85
2019-04-14T18:21:30.208Z,78.04
2019-04-14T18:24:02.983Z,77.99
2019-04-14T18:26:33.632Z,78.78
2019-04-14T18:29:21.366Z,78.73
2019-04-14T18:32:14.199Z,78.83
2019-04-14T18:35:02.557Z,79.30
2019-04-14T18:38:00.018Z,79.99
2019-04-14T18:40:43.579Z,80.68
2019-04-14T18:43:30.218Z,80.67
2019-04-14T18:46:23.276Z,81.20
2019-04-14T18:48:59.592Z,81.51
2019-04-14T18:51:38.305Z,81.39
2019-04-14T18:54:22.765Z,81.74
2019-04-14T18:57:19.045Z,82.55
2019-04-14T19:00:20.230Z,83.23
2019-04-14T19:02:52.587Z,83.49
2019-04-14T19:05:24.480Z,83.77
2019-04-14T19:07:58.828Z,83.86
2019-04-14T19:10:29.291Z,84.26
2019-04-14T19:13:17.050Z,84.64
2019-04-14T19:15:57.899Z,84.65
2019-04-14T19:18:41.698Z,84.87
2019-04-14T19:21:25.677Z,84.90
2019-04-14T19:23:56.452Z,85.34
2019-04-14T19:26:28.360Z,85.07
2019-04-14T19:29:01.450Z,85.53
2019-04-14T19:31:32.582Z,85.88
2019-04-14T19:34:03.466Z,85.66
2019-04-14T19:36:34.185Z,86.07
2019-04-14T19:39:08.824Z,86.12
2019-04-14T19:41:41.509Z,86.61
2019-04-14T19:44:13.498Z,86.98
2019-04-14T19:46:45.621Z,87.41
2019-04-14T19:49:17.594Z,87.53
2019-04-14T19:51:48.592Z,87.62
2019-04-14T19:54:18.958Z,88.09
2019-04-14T19:56:50.536Z,88.57
2019-04-14T19:59:21.710Z,89.06
2019-04-14T20:01:57.355Z,89.22
2019-04-14T20:04:28.674Z,89.04
2019-04-14T20:07:04.588Z,88.87
2019-04-14T20:09:35.599Z,88.81
2019-04-14T20:12:08.759Z,88.73
2019-04-14T20:15:20.864Z,88.44
2019-04-14T20:18:04.757Z,88.69
2019-04-14T20:21:13.551Z,87.94
2019-04-14T20:23:52.358Z,87.57
2019-04-14T20:26:36.899Z,87.47
2019-04-14T20:29:14.320Z,87.27
2019-04-14T20:31:57.276Z,84.89
2019-04-14T20:34:27.920Z,85.58
2019-04-14T20:36:59.785Z,85.20
2019-04-14T20:39:54.848Z,84.95
2019-04-14T20:42:27.887Z,85.29
2019-04-14T20:44:59.880Z,85.05
2019-04-14T20:47:51.950Z,85.58
2019-04-14T20:50:25.433Z,85.69
2019-04-14T20:52:56.744Z,85.64
2019-04-14T20:55:28.045Z,85.70
2019-04-14T20:57:58.935Z,85.74
2019-04-14T21:00:32.492Z,85.35
2019-04-14T21:03:21.458Z,84.56
2019-04-14T21:06:31.064Z,84.88
2019-04-14T21:09:27.223Z,85.45
2019-04-14T21:12:06.271Z,85.84
2019-04-14T21:15:01.272Z,86.23
2019-04-14T21:17:48.162Z,85.54
2019-04-14T21:20:36.751Z,85.63
2019-04-14T21:23:42.422Z,85.50
2019-04-14T21:26:42.177Z,85.59
2019-04-14T21:29:26.011Z,84.74
2019-04-14T21:32:13.390Z,84.24
2019-04-14T21:35:09.816Z,84.00
2019-04-14T21:38:10.091Z,84.26
2019-04-14T21:40:46.451Z,83.36
2019-04-14T21:43:30.840Z,84.02
2019-04-14T21:46:03.175Z,84.53
2019-04-14T21:48:45.613Z,84.66
2019-04-14T21:51:16.220Z,84.23
2019-04-14T21:53:48.388Z,84.22
2019-04-14T21:56:20.873Z,84.34
2019-04-14T21:59:00.310Z,84.51
2019-04-14T22:01:52.299Z,84.12
2019-04-14T22:05:13.003Z,84.32
2019-04-14T22:08:07.093Z,85.04
2019-04-14T22:10:59.400Z,86.01
2019-04-14T22:13:31.163Z,86.86
2019-04-14T22:16:12.329Z,86.86
2019-04-14T22:18:43.362Z,85.71
2019-04-14T22:21:15.421Z,84.71
2019-04-14T22:24:00.403Z,84.91
2019-04-14T22:26:26.329Z,85.15
2019-04-14T22:28:55.410Z,85.17
2019-04-14T22:31:28.323Z,85.08
2019-04-14T22:34:01.337Z,84.88
2019-04-14T22:36:32.438Z,84.88
2019-04-14T22:39:07.551Z,84.24
2019-04-14T22:41:42.252Z,84.02
2019-04-14T22:44:20.207Z,83.91
2019-04-14T22:47:04.051Z,84.19
2019-04-14T22:49:43.313Z,84.00
2019-04-14T22:52:19.411Z,83.92
2019-04-14T22:54:52.370Z,84.10
2019-04-14T22:57:25.373Z,84.46
2019-04-14T22:59:56.433Z,84.01
2019-04-14T23:02:45.849Z,84.18
2019-04-14T23:05:43.264Z,83.76
2019-04-14T23:08:21.553Z,83.58
2019-04-14T23:11:03.914Z,83.46
2019-04-14T23:13:53.129Z,83.71
2019-04-14T23:16:32.868Z,83.92
2019-04-14T23:19:11.627Z,83.23
2019-04-14T23:22:11.391Z,83.16
2019-04-14T23:24:45.924Z,83.23
2019-04-14T23:27:16.508Z,83.31
2019-04-14T23:29:48.715Z,82.94
2019-04-14T23:32:25.715Z,83.28
2019-04-14T23:34:58.639Z,82.82
2019-04-14T23:37:31.624Z,83.58
2019-04-14T23:40:03.252Z,83.83
2019-04-14T23:42:34.632Z,83.51
2019-04-14T23:45:07.828Z,83.72
2019-04-14T23:47:41.263Z,83.46
2019-04-14T23:50:27.905Z,83.69
2019-04-14T23:53:15.729Z,83.83
2019-04-14T23:55:50.263Z,83.62
2019-04-14T23:58:23.312Z,83.54
